Time;durP1;ratioP1;P1;durP2;ratioP2;P2;SDS_P1;SDS_P2;PMS_P1;PMS_P2;Temp;Humidity;BMP_temperature;BMP_pressure;BME280_temperature;BME280_humidity;BME280_pressure;Samples;Min_cycle;Max_cycle;Signal;HPM_P1;HPM_P2
2022/11/24 00:02:08;;;;;;;14.68;3.63;;;8.10;99.90;;;;;;5042758;28;20454;-75
2022/11/24 00:04:34;;;;;;;20.20;4.35;;;8.00;99.90;;;;;;5054245;28;20067;-76
2022/11/24 00:06:59;;;;;;;20.77;3.42;;;8.00;99.90;;;;;;5056222;28;20381;-75
2022/11/24 00:09:25;;;;;;;22.30;4.50;;;7.90;99.90;;;;;;5054550;28;20377;-77
2022/11/24 00:11:50;;;;;;;19.13;3.13;;;8.00;99.90;;;;;;5055067;28;20056;-75
2022/11/24 00:14:16;;;;;;;18.38;3.17;;;8.00;99.90;;;;;;5054330;28;20035;-74
2022/11/24 00:16:42;;;;;;;26.35;4.97;;;7.90;99.90;;;;;;5054059;28;20048;-77
2022/11/24 00:19:08;;;;;;;26.80;4.18;;;8.00;99.90;;;;;;5054953;28;20021;-75
2022/11/24 00:21:35;;;;;;;26.55;3.42;;;8.00;99.90;;;;;;5055234;28;20029;-74
2022/11/24 00:24:01;;;;;;;31.73;4.93;;;8.00;99.90;;;;;;5054420;28;20028;-75
2022/11/24 00:26:30;;;;;;;23.30;3.38;;;8.00;99.90;;;;;;5056238;28;20045;-74
2022/11/24 00:28:58;;;;;;;27.92;4.20;;;8.00;99.90;;;;;;5055451;28;20017;-75
2022/11/24 00:31:29;;;;;;;20.08;4.22;;;8.00;99.90;;;;;;5055033;28;20029;-76
2022/11/24 00:33:57;;;;;;;18.50;4.47;;;8.00;99.90;;;;;;5055517;28;20158;-77
2022/11/24 00:36:25;;;;;;;36.40;4.22;;;7.90;99.90;;;;;;5055021;28;20032;-74
2022/11/24 00:38:55;;;;;;;18.73;3.78;;;7.80;99.90;;;;;;5054024;28;20029;-75
2022/11/24 00:41:22;;;;;;;14.85;3.47;;;7.80;99.90;;;;;;5055609;28;20013;-76
2022/11/24 00:43:48;;;;;;;24.65;4.07;;;7.80;99.90;;;;;;5054731;28;20071;-75
2022/11/24 00:46:14;;;;;;;33.58;5.13;;;7.80;99.90;;;;;;5053329;28;20064;-76
2022/11/24 00:48:39;;;;;;;19.38;3.78;;;7.90;99.90;;;;;;5055040;28;20017;-76
2022/11/24 00:51:08;;;;;;;19.67;3.25;;;7.80;99.90;;;;;;5054223;28;20068;-75
2022/11/24 00:53:34;;;;;;;22.20;4.00;;;7.80;99.90;;;;;;5053743;28;20021;-74
2022/11/24 00:55:59;;;;;;;26.75;3.78;;;7.80;99.90;;;;;;5054014;28;20071;-76
2022/11/24 00:58:25;;;;;;;21.10;3.67;;;7.90;99.90;;;;;;5055124;28;20024;-76
2022/11/24 01:00:51;;;;;;;18.80;3.55;;;7.90;99.90;;;;;;5053629;28;20108;-75
2022/11/24 01:03:18;;;;;;;23.00;3.42;;;7.90;99.90;;;;;;5054557;28;20017;-74
2022/11/24 01:05:44;;;;;;;15.63;3.45;;;7.90;99.90;;;;;;5054209;28;20033;-76
2022/11/24 01:08:10;;;;;;;22.55;3.45;;;7.90;99.90;;;;;;5054400;28;20029;-75
2022/11/24 01:10:36;;;;;;;19.52;3.88;;;7.90;99.90;;;;;;5043468;28;20025;-76
2022/11/24 01:13:02;;;;;;;15.48;3.45;;;8.00;99.90;;;;;;5052421;28;20029;-75
2022/11/24 01:15:29;;;;;;;21.27;3.30;;;8.00;99.90;;;;;;5054557;28;20116;-75
2022/11/24 01:17:55;;;;;;;13.63;3.53;;;8.00;99.90;;;;;;5054131;28;20021;-76
2022/11/24 01:20:21;;;;;;;19.40;3.58;;;8.00;99.90;;;;;;5049441;28;20030;-76
2022/11/24 01:22:48;;;;;;;17.85;4.38;;;8.00;99.90;;;;;;5045781;28;20029;-76
2022/11/24 01:25:14;;;;;;;12.07;3.40;;;8.10;99.90;;;;;;5053342;28;20052;-76
2022/11/24 01:27:39;;;;;;;13.80;2.92;;;8.20;99.90;;;;;;5054439;28;20096;-75
2022/11/24 01:30:06;;;;;;;20.98;3.38;;;8.20;99.90;;;;;;5054080;28;20036;-75
2022/11/24 01:32:34;;;;;;;16.88;3.15;;;8.20;99.90;;;;;;5053649;28;20444;-77
2022/11/24 01:35:04;;;;;;;15.13;3.05;;;8.30;99.90;;;;;;5053294;28;20060;-75
2022/11/24 01:37:29;;;;;;;24.50;3.67;;;8.30;99.90;;;;;;5053798;28;20029;-76
2022/11/24 01:39:55;;;;;;;20.83;2.92;;;8.40;99.90;;;;;;5053352;28;20448;-76
2022/11/24 01:42:21;;;;;;;18.73;3.45;;;8.40;99.90;;;;;;5052964;28;20041;-76
2022/11/24 01:44:48;;;;;;;20.83;3.17;;;8.40;99.90;;;;;;5053708;28;20029;-76
2022/11/24 01:47:35;;;;;;;14.43;3.17;;;8.50;99.90;;;;;;5051607;28;20025;-76
2022/11/24 01:50:03;;;;;;;13.73;2.55;;;8.50;99.90;;;;;;5043732;28;20100;-76
2022/11/24 01:52:35;;;;;;;14.32;3.25;;;8.50;99.90;;;;;;5053184;28;20025;-77
2022/11/24 01:55:08;;;;;;;12.65;2.47;;;8.60;99.90;;;;;;5042642;28;20029;-76
2022/11/24 01:57:39;;;;;;;16.02;3.13;;;8.60;99.90;;;;;;5049598;28;20052;-76
2022/11/24 02:00:08;;;;;;;26.27;3.97;;;8.50;99.90;;;;;;5053164;28;20108;-76
2022/11/24 02:02:34;;;;;;;12.00;3.17;;;8.50;99.90;;;;;;5054195;28;20384;-77
2022/11/24 02:05:06;;;;;;;16.05;4.10;;;8.60;99.90;;;;;;5054171;28;20476;-77
2022/11/24 02:07:34;;;;;;;17.92;3.42;;;8.60;99.90;;;;;;5053903;28;20044;-76
2022/11/24 02:10:05;;;;;;;19.90;2.80;;;8.60;99.90;;;;;;5054500;28;20027;-76
2022/11/24 02:12:31;;;;;;;14.70;2.80;;;8.60;99.90;;;;;;5053916;28;20078;-76
2022/11/24 02:14:58;;;;;;;23.17;4.28;;;8.60;99.90;;;;;;5056439;28;20108;-76
2022/11/24 02:17:23;;;;;;;10.68;2.50;;;8.70;99.90;;;;;;5053465;28;20473;-76
2022/11/24 02:19:58;;;;;;;21.38;3.70;;;8.70;99.90;;;;;;5053443;28;20033;-76
2022/11/24 02:22:29;;;;;;;17.25;3.40;;;8.60;99.90;;;;;;5028219;28;20499;-76
2022/11/24 02:25:08;;;;;;;14.90;3.17;;;8.60;99.90;;;;;;5052968;28;20120;-76
2022/11/24 02:27:35;;;;;;;20.30;2.67;;;8.60;99.90;;;;;;5054766;28;20025;-76
2022/11/24 02:30:00;;;;;;;17.73;3.00;;;8.60;99.90;;;;;;5052941;28;20032;-76
2022/11/24 02:32:27;;;;;;;17.67;2.85;;;8.70;99.90;;;;;;5054301;28;20024;-75
2022/11/24 02:35:01;;;;;;;14.48;1.75;;;8.70;99.90;;;;;;5053668;28;20029;-75
2022/11/24 02:37:27;;;;;;;14.43;2.22;;;8.80;99.90;;;;;;5048452;28;20025;-76
2022/11/24 02:39:52;;;;;;;8.93;2.33;;;8.80;99.90;;;;;;5044128;28;20021;-76
2022/11/24 02:42:18;;;;;;;7.93;1.45;;;8.80;99.90;;;;;;5052975;28;20350;-76
2022/11/24 02:44:48;;;;;;;8.65;1.67;;;8.80;99.90;;;;;;5044839;28;20117;-75
2022/11/24 02:47:13;;;;;;;7.40;1.90;;;8.80;99.90;;;;;;5049691;28;20021;-76
2022/11/24 02:49:39;;;;;;;8.43;1.88;;;8.80;99.90;;;;;;5053537;28;20271;-75
2022/11/24 02:52:06;;;;;;;9.15;1.35;;;8.80;99.90;;;;;;5052630;28;20033;-76
2022/11/24 02:54:31;;;;;;;6.05;1.35;;;8.70;99.90;;;;;;5053297;28;20017;-75
2022/11/24 02:56:57;;;;;;;3.08;0.82;;;8.80;99.90;;;;;;5054018;28;20069;-76
2022/11/24 02:59:23;;;;;;;4.65;1.77;;;8.80;99.90;;;;;;5052213;28;20079;-76
2022/11/24 03:01:49;;;;;;;7.32;0.88;;;8.80;99.90;;;;;;5043061;28;20025;-76
2022/11/24 03:04:14;;;;;;;6.13;1.27;;;8.80;99.90;;;;;;5048123;28;20436;-75
2022/11/24 03:06:42;;;;;;;3.55;0.75;;;8.80;99.90;;;;;;5051902;28;20037;-76
2022/11/24 03:09:08;;;;;;;7.07;1.27;;;8.70;99.90;;;;;;5052517;28;20056;-76
2022/11/24 03:11:33;;;;;;;6.25;1.25;;;8.80;99.90;;;;;;5052702;28;20063;-76
2022/11/24 03:14:00;;;;;;;4.60;1.75;;;8.80;99.90;;;;;;5025400;28;20049;-76
2022/11/24 03:16:26;;;;;;;4.15;1.17;;;8.80;99.90;;;;;;5033031;28;20018;-76
2022/11/24 03:18:52;;;;;;;7.13;1.50;;;8.90;99.90;;;;;;5032125;28;20056;-76
2022/11/24 03:21:18;;;;;;;5.95;1.90;;;8.90;99.90;;;;;;5032238;28;20104;-75
2022/11/24 03:23:44;;;;;;;7.10;1.45;;;8.80;99.90;;;;;;5032685;28;20079;-76
2022/11/24 03:26:12;;;;;;;8.50;2.28;;;8.80;99.90;;;;;;5032444;28;20058;-76
2022/11/24 03:28:38;;;;;;;10.32;2.28;;;8.90;99.90;;;;;;5032019;28;20049;-77
2022/11/24 03:31:06;;;;;;;12.45;3.33;;;8.80;99.90;;;;;;5033155;28;20517;-75
2022/11/24 03:33:31;;;;;;;17.40;3.00;;;8.90;99.90;;;;;;5032582;28;20026;-76
2022/11/24 03:35:59;;;;;;;19.33;3.42;;;8.80;99.90;;;;;;5032218;28;20029;-75
2022/11/24 03:38:25;;;;;;;18.38;3.22;;;8.80;99.90;;;;;;5032424;28;20025;-76
2022/11/24 03:40:51;;;;;;;17.80;2.88;;;8.90;99.90;;;;;;5031817;28;20029;-76
2022/11/24 03:43:18;;;;;;;19.55;3.20;;;8.90;99.90;;;;;;5032143;28;20080;-76
2022/11/24 03:45:48;;;;;;;14.52;2.80;;;8.90;99.90;;;;;;5032239;28;20496;-76
2022/11/24 03:48:15;;;;;;;15.25;3.03;;;8.80;99.90;;;;;;5032128;28;20026;-76
2022/11/24 03:50:41;;;;;;;16.85;3.45;;;8.80;99.90;;;;;;5036816;28;20034;-76
2022/11/24 03:53:06;;;;;;;25.75;3.83;;;8.80;99.90;;;;;;5035884;28;20071;-75
2022/11/24 03:55:32;;;;;;;20.58;3.80;;;8.70;99.90;;;;;;5034745;28;20032;-76
2022/11/24 03:57:58;;;;;;;17.42;3.47;;;8.80;99.90;;;;;;5035004;28;20091;-76
2022/11/24 04:00:23;;;;;;;16.45;3.53;;;8.80;99.90;;;;;;5035246;28;20033;-76
2022/11/24 04:02:49;;;;;;;22.23;4.47;;;8.80;99.90;;;;;;5035183;28;20021;-76
2022/11/24 04:05:15;;;;;;;18.42;3.88;;;8.90;99.90;;;;;;5035566;28;20049;-77
2022/11/24 04:07:40;;;;;;;20.70;4.55;;;8.80;99.90;;;;;;5037058;28;20056;-76
2022/11/24 04:10:06;;;;;;;19.15;3.88;;;8.80;99.90;;;;;;5035421;28;20444;-75
2022/11/24 04:12:44;;;;;;;10.32;3.92;;;8.80;99.90;;;;;;5035890;28;20385;-76
2022/11/24 04:15:19;;;;;;;15.77;4.07;;;8.90;99.90;;;;;;5037094;28;20028;-74
2022/11/24 04:17:45;;;;;;;11.93;3.58;;;8.90;99.90;;;;;;5035710;28;20041;-76
2022/11/24 04:20:11;;;;;;;12.57;3.72;;;8.90;99.90;;;;;;5035614;28;20031;-75
2022/11/24 04:22:37;;;;;;;12.95;3.50;;;8.90;99.90;;;;;;5034728;28;20026;-76
2022/11/24 04:25:04;;;;;;;14.23;3.38;;;8.90;99.90;;;;;;5036089;28;20417;-77
2022/11/24 04:27:31;;;;;;;10.23;2.20;;;8.90;99.90;;;;;;5035605;28;20022;-76
2022/11/24 04:29:57;;;;;;;9.98;2.33;;;8.90;99.90;;;;;;5034930;28;20100;-76
2022/11/24 04:32:22;;;;;;;8.68;1.92;;;8.90;99.90;;;;;;5035910;28;20426;-75
2022/11/24 04:34:48;;;;;;;8.57;1.80;;;8.80;99.90;;;;;;5035526;28;20017;-77
2022/11/24 04:37:13;;;;;;;2.80;0.88;;;9.40;99.90;;;;;;5034094;28;20108;-76
2022/11/24 04:39:39;;;;;;;6.18;1.05;;;8.60;99.90;;;;;;5036084;28;20030;-77
2022/11/24 04:42:05;;;;;;;8.68;1.42;;;8.60;99.90;;;;;;5035755;28;20021;-77
2022/11/24 04:44:30;;;;;;;1.98;0.77;;;8.60;99.90;;;;;;5034857;28;20120;-76
2022/11/24 04:46:56;;;;;;;4.20;0.75;;;8.50;99.90;;;;;;5035511;28;20540;-76
2022/11/24 04:49:21;;;;;;;4.15;0.80;;;8.50;99.90;;;;;;5035530;28;20599;-76
2022/11/24 04:51:47;;;;;;;6.05;1.55;;;8.40;99.90;;;;;;5034503;28;20373;-76
2022/11/24 04:54:13;;;;;;;4.32;0.95;;;8.40;99.90;;;;;;5035338;28;20108;-78
2022/11/24 04:56:40;;;;;;;6.63;1.63;;;8.30;99.90;;;;;;5035288;28;20014;-78
2022/11/24 04:59:06;;;;;;;4.28;0.82;;;8.30;99.90;;;;;;5024613;28;20439;-77
2022/11/24 05:01:32;;;;;;;6.45;1.42;;;8.20;99.90;;;;;;5030766;28;20025;-76
2022/11/24 05:03:57;;;;;;;3.30;1.05;;;8.20;99.90;;;;;;5034453;28;20124;-77
2022/11/24 05:06:24;;;;;;;7.53;1.10;;;8.10;99.90;;;;;;5034943;28;20117;-76
2022/11/24 05:08:51;;;;;;;6.93;1.20;;;8.10;99.90;;;;;;5021572;28;20527;-77
2022/11/24 05:11:17;;;;;;;6.43;1.25;;;8.10;99.90;;;;;;5034450;28;20486;-78
2022/11/24 05:13:43;;;;;;;5.07;2.05;;;8.00;99.90;;;;;;5033542;28;20518;-77
2022/11/24 05:16:09;;;;;;;5.68;1.05;;;8.00;99.90;;;;;;5034596;28;20100;-77
2022/11/24 05:18:35;;;;;;;6.82;1.60;;;8.00;99.90;;;;;;5034835;28;20073;-77
2022/11/24 05:21:00;;;;;;;5.15;1.83;;;8.00;99.90;;;;;;5034238;28;20022;-78
2022/11/24 05:23:26;;;;;;;5.78;2.35;;;8.00;99.90;;;;;;5034580;28;20026;-77
2022/11/24 05:25:52;;;;;;;10.40;1.85;;;8.00;99.90;;;;;;5032938;28;20588;-77
2022/11/24 05:28:18;;;;;;;4.85;1.58;;;8.00;99.90;;;;;;5034296;28;20096;-76
2022/11/24 05:30:44;;;;;;;6.15;1.33;;;8.00;99.90;;;;;;5034387;28;20152;-76
2022/11/24 05:33:17;;;;;;;10.82;1.80;;;8.00;99.90;;;;;;5034138;28;20095;-77
2022/11/24 05:35:49;;;;;;;3.78;1.27;;;8.00;99.90;;;;;;5034639;28;20386;-76
2022/11/24 05:38:16;;;;;;;9.85;1.90;;;8.00;99.90;;;;;;5033857;28;20013;-76
2022/11/24 05:40:43;;;;;;;8.13;1.98;;;8.00;99.90;;;;;;5033864;28;20025;-78
2022/11/24 05:43:15;;;;;;;8.75;1.77;;;8.00;99.90;;;;;;5034704;28;20021;-75
2022/11/24 05:45:42;;;;;;;5.65;1.88;;;8.00;99.90;;;;;;5034442;28;20505;-77
2022/11/24 05:48:10;;;;;;;3.58;1.85;;;8.10;99.90;;;;;;5033510;28;20028;-79
2022/11/24 05:50:36;;;;;;;5.82;1.67;;;8.10;99.90;;;;;;5034558;28;20108;-77
2022/11/24 05:53:07;;;;;;;4.50;1.73;;;8.00;99.90;;;;;;5034795;28;20045;-78
2022/11/24 05:55:34;;;;;;;7.72;1.77;;;8.00;99.90;;;;;;5032891;28;20025;-77
2022/11/24 05:58:01;;;;;;;4.10;1.38;;;8.00;99.90;;;;;;5034794;28;20029;-76
2022/11/24 06:00:28;;;;;;;7.10;1.45;;;7.90;99.90;;;;;;5033144;28;20037;-76
2022/11/24 06:02:58;;;;;;;5.88;1.88;;;8.00;99.90;;;;;;5023426;28;20489;-75
2022/11/24 06:05:25;;;;;;;7.65;2.85;;;8.00;99.90;;;;;;5016585;28;20041;-75
2022/11/24 06:07:51;;;;;;;7.38;2.53;;;8.00;99.90;;;;;;5012553;28;20026;-77
2022/11/24 06:10:17;;;;;;;5.55;2.50;;;8.00;99.90;;;;;;5016683;28;20033;-77
2022/11/24 06:12:43;;;;;;;5.85;2.90;;;8.00;99.90;;;;;;5014996;28;20025;-76
2022/11/24 06:15:10;;;;;;;9.75;3.65;;;8.00;99.90;;;;;;5013382;28;20100;-76
2022/11/24 06:17:35;;;;;;;9.15;3.60;;;8.00;99.90;;;;;;5017166;28;20032;-77
2022/11/24 06:20:01;;;;;;;7.30;3.67;;;7.90;99.90;;;;;;5015715;28;20374;-77
2022/11/24 06:22:26;;;;;;;8.13;3.90;;;7.90;99.90;;;;;;5018675;28;20490;-77
2022/11/24 06:24:52;;;;;;;6.35;3.92;;;7.80;99.90;;;;;;5020363;28;20044;-77
2022/11/24 06:27:18;;;;;;;10.35;4.65;;;7.80;99.90;;;;;;5022671;28;20071;-79
2022/11/24 06:29:44;;;;;;;5.78;4.00;;;7.80;99.90;;;;;;5015402;28;20040;-77
2022/11/24 06:32:13;;;;;;;8.05;4.45;;;7.80;99.90;;;;;;5017723;28;20061;-78
2022/11/24 06:34:38;;;;;;;10.45;4.40;;;8.10;99.90;;;;;;5015064;28;20097;-78
2022/11/24 06:37:04;;;;;;;6.10;3.78;;;7.80;99.90;;;;;;5012426;28;20558;-77
2022/11/24 06:39:29;;;;;;;4.03;3.63;;;7.80;99.90;;;;;;5013391;28;20026;-77
2022/11/24 06:41:55;;;;;;;8.75;3.75;;;7.80;99.90;;;;;;5012919;28;20610;-77
2022/11/24 06:44:21;;;;;;;6.70;3.47;;;7.80;99.90;;;;;;5019651;28;20080;-77
2022/11/24 06:46:47;;;;;;;6.78;3.25;;;7.70;99.90;;;;;;5020611;28;20110;-77
2022/11/24 06:49:16;;;;;;;10.27;3.65;;;7.60;99.90;;;;;;5016904;28;20059;-77
2022/11/24 06:51:41;;;;;;;4.80;3.60;;;7.60;99.90;;;;;;5016231;28;20084;-76
2022/11/24 06:54:08;;;;;;;6.28;3.40;;;7.60;99.90;;;;;;5016083;28;20545;-78
2022/11/24 06:56:36;;;;;;;8.85;4.20;;;7.60;99.90;;;;;;5018486;28;20021;-77
2022/11/24 06:59:02;;;;;;;11.75;3.30;;;7.60;99.90;;;;;;5018204;28;20001;-77
2022/11/24 07:01:29;;;;;;;5.45;3.40;;;7.60;99.90;;;;;;5017483;28;20493;-76
2022/11/24 07:03:55;;;;;;;9.77;3.92;;;7.70;99.90;;;;;;5029771;28;20026;-77
2022/11/24 07:06:23;;;;;;;10.70;3.78;;;7.60;99.90;;;;;;5031424;28;20045;-76
2022/11/24 07:08:49;;;;;;;6.03;4.28;;;7.60;99.90;;;;;;5032720;28;20052;-77
2022/11/24 07:11:17;;;;;;;13.80;5.20;;;8.20;99.90;;;;;;5033197;28;20470;-77
2022/11/24 07:13:44;;;;;;;7.05;4.70;;;7.70;99.90;;;;;;5032869;28;20013;-77
2022/11/24 07:16:13;;;;;;;13.93;4.65;;;7.60;99.90;;;;;;5031273;28;20421;-77
2022/11/24 07:18:39;;;;;;;10.90;4.77;;;7.70;99.90;;;;;;5030812;28;20033;-76
2022/11/24 07:21:05;;;;;;;10.30;4.90;;;7.70;99.90;;;;;;5034861;28;20048;-77
2022/11/24 07:23:30;;;;;;;13.73;4.60;;;7.80;99.90;;;;;;5032331;28;20075;-77
2022/11/24 07:25:56;;;;;;;6.88;3.75;;;7.70;99.90;;;;;;5033697;28;20045;-77
2022/11/24 07:28:21;;;;;;;8.75;3.38;;;7.80;99.90;;;;;;5035148;28;20052;-77
2022/11/24 07:30:47;;;;;;;10.73;3.30;;;7.90;99.90;;;;;;5035613;28;20030;-77
2022/11/24 07:33:12;;;;;;;8.23;3.80;;;8.00;99.90;;;;;;5034152;28;20078;-77
2022/11/24 07:35:38;;;;;;;12.82;3.75;;;7.90;99.90;;;;;;5035903;28;20056;-77
2022/11/24 07:38:03;;;;;;;15.15;3.47;;;8.00;99.90;;;;;;5035675;28;20041;-75
2022/11/24 07:40:29;;;;;;;8.77;3.00;;;8.00;99.90;;;;;;5035472;28;20021;-77
2022/11/24 07:42:55;;;;;;;7.57;3.58;;;8.00;99.90;;;;;;5035251;28;20029;-77
2022/11/24 07:45:20;;;;;;;6.40;3.42;;;8.00;99.90;;;;;;5035486;28;20040;-77
2022/11/24 07:47:46;;;;;;;12.20;4.18;;;8.00;99.90;;;;;;5035399;28;20030;-75
2022/11/24 07:50:11;;;;;;;8.45;3.95;;;8.00;99.90;;;;;;5034987;28;20071;-80
2022/11/24 07:52:37;;;;;;;9.00;3.70;;;8.10;99.90;;;;;;5034918;28;20030;-76
2022/11/24 07:55:04;;;;;;;7.70;3.45;;;8.00;99.90;;;;;;5035473;28;20022;-75
2022/11/24 07:57:29;;;;;;;9.77;3.63;;;8.10;99.90;;;;;;5038812;28;20031;-76
2022/11/24 07:59:55;;;;;;;15.52;2.95;;;8.10;99.90;;;;;;5041328;28;20518;-76
2022/11/24 08:02:21;;;;;;;11.93;3.33;;;8.10;99.90;;;;;;5038077;28;20076;-76
2022/11/24 08:04:47;;;;;;;16.25;3.97;;;8.10;99.90;;;;;;5036203;28;20485;-76
2022/11/24 08:07:12;;;;;;;17.20;3.08;;;8.10;99.90;;;;;;5035451;28;20026;-77
2022/11/24 08:09:38;;;;;;;9.57;3.42;;;8.10;99.90;;;;;;5034571;28;20029;-75
2022/11/24 08:12:04;;;;;;;12.10;2.67;;;8.10;99.90;;;;;;5034788;28;20030;-76
2022/11/24 08:14:30;;;;;;;11.73;3.22;;;8.00;99.90;;;;;;5020492;28;20478;-75
2022/11/24 08:16:57;;;;;;;10.70;2.47;;;8.00;99.90;;;;;;5032497;28;20359;-76
2022/11/24 08:19:23;;;;;;;10.68;2.10;;;8.00;99.90;;;;;;5035764;28;20025;-76
2022/11/24 08:21:48;;;;;;;9.82;1.98;;;8.00;99.90;;;;;;5034089;28;20028;-76
2022/11/24 08:24:15;;;;;;;9.48;2.33;;;7.90;99.90;;;;;;5034105;28;20045;-76
2022/11/24 08:26:41;;;;;;;18.40;2.78;;;7.90;99.90;;;;;;5034903;28;20041;-75
2022/11/24 08:29:07;;;;;;;13.30;2.30;;;7.90;99.90;;;;;;5034579;28;20035;-75
2022/11/24 08:31:34;;;;;;;12.80;2.22;;;7.90;99.90;;;;;;5031033;28;20037;-75
2022/11/24 08:34:02;;;;;;;19.40;3.13;;;8.00;99.90;;;;;;5015322;28;20028;-77
2022/11/24 08:36:28;;;;;;;11.93;2.28;;;8.00;99.90;;;;;;5035587;28;20052;-76
2022/11/24 08:38:58;;;;;;;9.20;2.67;;;8.10;99.90;;;;;;5032158;28;20014;-73
2022/11/24 08:41:24;;;;;;;9.43;3.03;;;8.20;99.90;;;;;;5032966;28;20385;-76
2022/11/24 08:43:50;;;;;;;15.20;3.00;;;8.20;99.90;;;;;;5031773;28;20082;-74
2022/11/24 08:46:17;;;;;;;17.80;3.97;;;8.30;99.90;;;;;;5032473;28;20037;-75
2022/11/24 08:48:46;;;;;;;11.60;2.00;;;8.30;99.90;;;;;;5031222;28;20022;-74
2022/11/24 08:51:16;;;;;;;15.43;3.30;;;8.30;99.90;;;;;;5020889;28;20032;-74
2022/11/24 08:53:42;;;;;;;6.88;2.28;;;8.30;99.90;;;;;;5021684;28;20033;-75
2022/11/24 08:56:09;;;;;;;12.82;2.83;;;8.30;99.90;;;;;;5032212;28;20115;-76
2022/11/24 08:58:36;;;;;;;10.90;2.22;;;8.30;99.90;;;;;;5029601;28;20135;-76
2022/11/24 09:01:13;;;;;;;17.23;2.53;;;8.30;99.90;;;;;;5031036;28;20478;-75
2022/11/24 09:03:39;;;;;;;18.35;3.80;;;8.30;99.90;;;;;;5030889;28;20029;-74
2022/11/24 09:06:07;;;;;;;14.13;3.28;;;8.30;99.90;;;;;;5024417;28;20071;-74
2022/11/24 09:08:33;;;;;;;14.07;2.20;;;8.30;99.90;;;;;;5031983;28;20018;-74
2022/11/24 09:11:01;;;;;;;11.98;2.42;;;8.40;99.90;;;;;;5031447;28;20025;-74
2022/11/24 09:13:27;;;;;;;12.88;2.47;;;8.50;99.90;;;;;;5032646;28;20551;-75
2022/11/24 09:15:52;;;;;;;9.55;2.20;;;8.50;99.90;;;;;;5031614;28;20068;-75
2022/11/24 09:18:18;;;;;;;13.60;2.25;;;8.50;99.90;;;;;;5031928;28;20049;-74
2022/11/24 09:20:43;;;;;;;15.88;2.95;;;8.60;99.90;;;;;;5031366;28;20030;-76
2022/11/24 09:23:09;;;;;;;9.45;3.03;;;8.60;99.90;;;;;;5031909;28;20029;-74
2022/11/24 09:25:35;;;;;;;6.70;1.92;;;8.70;99.90;;;;;;5030918;28;20045;-75
2022/11/24 09:28:00;;;;;;;9.65;3.08;;;8.60;99.90;;;;;;5032433;28;20017;-75
2022/11/24 09:30:27;;;;;;;13.30;2.00;;;8.70;99.90;;;;;;5032625;28;20022;-74
2022/11/24 09:32:55;;;;;;;21.13;4.57;;;8.70;99.90;;;;;;5030590;28;20512;-74
2022/11/24 09:35:21;;;;;;;20.38;2.65;;;8.80;99.90;;;;;;5023932;28;20056;-75
2022/11/24 09:37:47;;;;;;;14.75;2.03;;;8.90;99.90;;;;;;5030520;28;20053;-75
2022/11/24 09:40:14;;;;;;;13.05;2.50;;;8.90;99.90;;;;;;5030631;28;20021;-75
2022/11/24 09:42:52;;;;;;;16.83;2.85;;;9.00;99.90;;;;;;5031786;28;20056;-74
2022/11/24 09:45:46;;;;;;;18.63;2.92;;;9.10;99.90;;;;;;5028774;28;20120;-74
2022/11/24 09:48:27;;;;;;;18.60;3.10;;;9.10;99.90;;;;;;5029867;28;20041;-74
2022/11/24 09:50:56;;;;;;;19.48;3.20;;;9.10;99.90;;;;;;5028738;28;20061;-73
2022/11/24 09:53:34;;;;;;;18.77;2.75;;;9.10;99.90;;;;;;5025048;28;20044;-75
2022/11/24 09:56:20;;;;;;;11.93;3.13;;;9.10;99.90;;;;;;5030531;28;20100;-74
2022/11/24 09:58:53;;;;;;;21.15;3.35;;;9.20;99.90;;;;;;5032365;28;20390;-74
2022/11/24 10:01:30;;;;;;;18.10;3.55;;;9.20;99.90;;;;;;5031355;28;20025;-74
2022/11/24 10:03:56;;;;;;;11.30;2.35;;;9.20;99.90;;;;;;5031781;28;20029;-74
2022/11/24 10:06:30;;;;;;;20.63;4.05;;;9.30;99.90;;;;;;5031423;28;20041;-75
2022/11/24 10:09:07;;;;;;;14.57;2.92;;;9.80;99.90;;;;;;5027818;28;20123;-74
2022/11/24 10:11:57;;;;;;;15.20;4.47;;;9.30;99.90;;;;;;5032588;28;20049;-76
2022/11/24 10:14:43;;;;;;;18.55;3.63;;;9.40;99.90;;;;;;5030691;28;20021;-74
2022/11/24 10:17:27;;;;;;;25.58;4.47;;;9.40;99.90;;;;;;5030433;28;20030;-75
2022/11/24 10:20:01;;;;;;;30.55;6.80;;;9.40;99.90;;;;;;5028110;28;20540;-76
2022/11/24 10:22:41;;;;;;;17.45;3.85;;;9.40;99.90;;;;;;5027875;28;20132;-75
2022/11/24 10:25:26;;;;;;;13.45;3.63;;;9.50;99.90;;;;;;5031413;28;20513;-74
2022/11/24 10:28:00;;;;;;;19.52;4.45;;;9.50;99.90;;;;;;5030698;28;20037;-74
2022/11/24 10:30:26;;;;;;;12.98;3.88;;;9.50;99.90;;;;;;5029738;28;20036;-74
2022/11/24 10:32:57;;;;;;;20.52;3.83;;;9.50;99.90;;;;;;5030368;28;20026;-75
2022/11/24 10:35:35;;;;;;;;;;;9.60;99.90;;;;;;5030458;28;20045;-74
2022/11/24 10:38:19;;;;;;;28.70;4.25;;;9.60;99.90;;;;;;5030456;28;19905;-74
2022/11/24 10:40:49;;;;;;;11.98;2.95;;;9.60;99.90;;;;;;5030378;28;20032;-75
2022/11/24 10:43:15;;;;;;;17.15;3.97;;;9.60;99.90;;;;;;5030874;28;20523;-73
2022/11/24 10:45:40;;;;;;;12.20;4.00;;;9.60;99.90;;;;;;5030861;28;20037;-73
2022/11/24 10:48:24;;;;;;;19.42;4.15;;;9.60;99.90;;;;;;5030082;28;20026;-74
2022/11/24 10:50:55;;;;;;;18.17;4.00;;;9.60;99.90;;;;;;5029592;28;20033;-75
2022/11/24 10:53:28;;;;;;;16.63;3.40;;;9.70;99.90;;;;;;5030875;28;20032;-74
2022/11/24 10:55:59;;;;;;;20.67;3.55;;;9.70;99.90;;;;;;5030170;28;20044;-74
2022/11/24 10:58:31;;;;;;;;;;;9.70;99.90;;;;;;5032916;28;20508;-74
2022/11/24 11:01:11;;;;;;;22.23;4.18;;;9.80;99.90;;;;;;5034569;28;20218;-74
2022/11/24 11:03:50;;;;;;;19.02;4.03;;;9.80;99.90;;;;;;5034538;28;20033;-74
2022/11/24 11:06:24;;;;;;;16.15;2.90;;;9.80;99.90;;;;;;5034431;28;20044;-75
2022/11/24 11:09:13;;;;;;;25.50;3.83;;;9.90;99.90;;;;;;5032179;28;20501;-75
2022/11/24 11:11:39;;;;;;;21.35;3.78;;;9.90;99.90;;;;;;5033657;28;20029;-73
2022/11/24 11:14:06;;;;;;;12.18;3.55;;;9.90;99.90;;;;;;5034876;28;20047;-73
2022/11/24 11:16:32;;;;;;;17.13;3.65;;;10.00;99.90;;;;;;5034034;28;20099;-73
2022/11/24 11:19:00;;;;;;;19.77;3.53;;;10.00;99.90;;;;;;5033182;28;20072;-74
2022/11/24 11:21:38;;;;;;;18.75;4.03;;;10.10;99.90;;;;;;5034327;28;20039;-74
2022/11/24 11:24:14;;;;;;;12.60;4.53;;;10.10;99.90;;;;;;5033594;28;20159;-76
2022/11/24 11:26:41;;;;;;;16.13;4.10;;;10.10;99.90;;;;;;5030469;28;20034;-74
2022/11/24 11:29:06;;;;;;;16.08;3.72;;;10.20;99.90;;;;;;5034336;28;20018;-74
2022/11/24 11:31:37;;;;;;;17.75;3.85;;;10.20;99.90;;;;;;5034684;28;20052;-75
2022/11/24 11:34:14;;;;;;;17.77;3.33;;;10.20;99.90;;;;;;5033710;28;20112;-74
2022/11/24 11:36:46;;;;;;;21.25;3.90;;;10.30;99.90;;;;;;5030819;28;20519;-73
2022/11/24 11:39:34;;;;;;;23.45;4.30;;;10.30;99.90;;;;;;5033152;28;20449;-74
2022/11/24 11:42:13;;;;;;;22.05;4.32;;;10.30;99.90;;;;;;5033788;28;20053;-74
2022/11/24 11:44:51;;;;;;;17.73;3.63;;;10.40;99.90;;;;;;5033877;28;20026;-74
2022/11/24 11:47:22;;;;;;;18.00;3.78;;;10.40;99.90;;;;;;5032925;28;20125;-74
2022/11/24 11:49:48;;;;;;;21.00;3.75;;;10.40;99.90;;;;;;5033766;28;20032;-74
2022/11/24 11:52:46;;;;;;;25.88;4.70;;;10.50;99.90;;;;;;5033323;28;20021;-75
2022/11/24 11:55:33;;;;;;;16.40;3.92;;;10.50;99.90;;;;;;5032269;28;20033;-74
2022/11/24 11:58:11;;;;;;;27.40;5.53;;;10.60;99.90;;;;;;5032992;28;20056;-74
2022/11/24 12:00:42;;;;;;;20.52;4.22;;;10.70;99.90;;;;;;5032644;28;20429;-74
2022/11/24 12:03:33;;;;;;;21.13;3.85;;;10.70;99.90;;;;;;5032882;28;20030;-75
2022/11/24 12:06:21;;;;;;;18.20;3.85;;;10.70;99.90;;;;;;5033194;28;20473;-74
2022/11/24 12:09:04;;;;;;;25.50;4.25;;;10.80;99.90;;;;;;5032217;28;20478;-75
2022/11/24 12:11:29;;;;;;;15.55;3.95;;;10.80;99.90;;;;;;5032855;28;20025;-75
2022/11/24 12:14:30;;;;;;;28.88;5.05;;;10.80;99.90;;;;;;5031294;28;20664;-75
2022/11/24 12:17:09;;;;;;;18.38;3.97;;;10.90;99.90;;;;;;5028219;28;20033;-75
2022/11/24 12:19:40;;;;;;;19.10;3.92;;;10.90;99.90;;;;;;5030625;28;20017;-76
2022/11/24 12:22:29;;;;;;;25.33;4.93;;;11.00;99.90;;;;;;5032513;28;20114;-76
2022/11/24 12:25:05;;;;;;;20.58;3.95;;;11.00;99.90;;;;;;5029377;28;20445;-74
2022/11/24 12:27:49;;;;;;;23.88;3.92;;;11.00;99.90;;;;;;5024763;28;20041;-74
2022/11/24 12:30:20;;;;;;;17.33;3.63;;;11.00;99.90;;;;;;5021660;28;20025;-74
2022/11/24 12:33:08;;;;;;;17.30;5.18;;;11.00;99.90;;;;;;5031913;28;20104;-74
2022/11/24 12:35:47;;;;;;;18.30;4.45;;;11.10;99.90;;;;;;5024623;28;20025;-75
2022/11/24 12:38:31;;;;;;;22.80;4.45;;;11.20;99.90;;;;;;5029730;28;20057;-76
2022/11/24 12:41:12;;;;;;;18.73;4.38;;;11.20;99.90;;;;;;5032544;28;20049;-74
2022/11/24 12:43:40;;;;;;;17.75;4.03;;;11.10;99.90;;;;;;5032337;28;20099;-75
2022/11/24 12:46:33;;;;;;;15.27;3.60;;;11.20;99.90;;;;;;5028787;28;20520;-75
2022/11/24 12:49:25;;;;;;;22.58;3.58;;;11.20;99.90;;;;;;5031890;28;20666;-75
2022/11/24 12:52:00;;;;;;;20.40;3.55;;;11.30;99.90;;;;;;5031183;28;20051;-75
2022/11/24 12:54:28;;;;;;;14.82;3.90;;;11.20;99.90;;;;;;5031791;28;20390;-75
2022/11/24 12:57:24;;;;;;;19.50;4.30;;;11.30;99.90;;;;;;5038051;28;20013;-76
2022/11/24 13:00:06;;;;;;;19.52;3.85;;;11.40;99.90;;;;;;5037115;28;20033;-75
2022/11/24 13:03:02;;;;;;;15.65;3.33;;;11.40;99.90;;;;;;5036544;28;20037;-74